Time;durP1;ratioP1;P1;durP2;ratioP2;P2;SDS_P1;SDS_P2;PMS_P1;PMS_P2;Temp;Humidity;BMP_temperature;BMP_pressure;BME280_temperature;BME280_humidity;BME280_pressure;Samples;Min_cycle;Max_cycle;Signal;HPM_P1;HPM_P2
2021/12/13 00:01:00;;;;;;;6.20;4.45;;;;;;;-0.65;68.46;94799.56;5087491;28;20028;-76
2021/12/13 00:03:54;;;;;;;29.73;11.52;;;;;;;-0.60;69.03;94812.97;5080141;28;20537;-76
2021/12/13 00:06:37;;;;;;;13.82;5.90;;;;;;;-0.63;68.40;94794.41;5087428;28;20040;-76
2021/12/13 00:09:11;;;;;;;10.73;5.30;;;;;;;-0.55;68.56;94810.25;5059277;28;20024;-76
2021/12/13 00:11:42;;;;;;;35.30;14.55;;;;;;;-0.46;68.21;94812.44;5073869;28;20036;-76
2021/12/13 00:14:19;;;;;;;14.52;6.78;;;;;;;-0.47;69.20;94819.25;5074235;28;20032;-76
2021/12/13 00:16:47;;;;;;;7.32;4.68;;;;;;;-0.64;68.68;94819.09;5090858;28;20056;-76
2021/12/13 00:19:37;;;;;;;8.23;4.88;;;;;;;-0.71;69.26;94795.53;5090721;28;20127;-77
2021/12/13 00:22:14;;;;;;;10.40;6.63;;;;;;;-0.53;69.11;94811.84;5074717;28;20039;-76
2021/12/13 00:24:41;;;;;;;26.63;10.93;;;;;;;-0.69;70.06;94814.16;5073473;28;20020;-76
2021/12/13 00:27:11;;;;;;;9.80;5.50;;;;;;;-0.59;68.58;94817.19;5072184;28;20521;-76
2021/12/13 00:29:56;;;;;;;7.13;4.63;;;;;;;-0.54;67.71;94817.00;5089817;28;20031;-76
2021/12/13 00:32:38;;;;;;;6.28;4.90;;;;;;;-0.57;67.70;94814.59;5075818;28;20043;-76
2021/12/13 00:35:09;;;;;;;6.93;4.32;;;;;;;-0.58;68.64;94818.84;5090798;28;20024;-76
2021/12/13 00:37:45;;;;;;;;;;;;;;;-0.58;68.70;94826.50;5074532;28;20050;-76
2021/12/13 00:40:15;;;;;;;10.73;5.03;;;;;;;-0.74;68.08;94816.06;5091563;28;19942;-76
2021/12/13 00:42:44;;;;;;;8.88;5.03;;;;;;;-0.72;67.94;94813.47;5091317;28;20040;-77
2021/12/13 00:45:11;;;;;;;8.27;5.28;;;;;;;-0.62;69.48;94808.81;5073701;28;20058;-76
2021/12/13 00:47:38;;;;;;;6.38;4.40;;;;;;;-0.61;67.40;94816.44;5073658;28;20028;-76
2021/12/13 00:50:07;;;;;;;8.13;4.60;;;;;;;-0.53;67.36;94811.84;5090295;28;20027;-76
2021/12/13 00:52:33;;;;;;;5.95;3.70;;;;;;;-0.47;67.56;94819.25;5091544;28;20043;-77
2021/12/13 00:54:59;;;;;;;7.30;4.20;;;;;;;-0.47;66.97;94821.00;5073270;28;20379;-76
2021/12/13 00:57:27;;;;;;;7.00;4.25;;;;;;;-0.34;66.43;94818.75;5073454;28;20048;-76
2021/12/13 01:00:26;;;;;;;6.82;4.53;;;;;;;-0.43;66.92;94811.47;5091444;28;20054;-76
2021/12/13 01:03:00;;;;;;;5.57;3.72;;;;;;;-0.47;66.13;94798.84;5085662;28;20032;-76
2021/12/13 01:05:35;;;;;;;5.43;3.58;;;;;;;-0.52;66.55;94808.41;5069954;28;20028;-76
2021/12/13 01:08:09;;;;;;;5.65;3.67;;;;;;;-0.42;66.51;94808.03;5071407;28;20044;-76
2021/12/13 01:10:53;;;;;;;6.07;3.78;;;;;;;-0.48;67.44;94809.94;5069566;28;20029;-76
2021/12/13 01:13:31;;;;;;;5.85;4.00;;;;;;;-0.56;67.54;94798.38;5069514;28;20036;-76
2021/12/13 01:19:02;;;;;;;5.93;4.15;;;;;;;-0.63;68.00;94790.13;5069820;28;20033;-76
2021/12/13 01:21:39;;;;;;;6.60;4.05;;;;;;;-0.48;66.81;94807.38;5054054;28;20536;-76
2021/12/13 01:24:19;;;;;;;5.88;3.67;;;;;;;-0.46;66.50;94802.22;5069907;28;20052;-76
2021/12/13 01:26:48;;;;;;;6.00;3.70;;;;;;;-0.58;66.54;94798.44;5069831;28;20040;-76
2021/12/13 01:29:23;;;;;;;5.80;3.70;;;;;;;-0.51;65.96;94806.69;5069682;28;20092;-76
2021/12/13 01:31:53;;;;;;;7.40;4.20;;;;;;;-0.40;67.08;94816.47;5052857;28;20493;-76
2021/12/13 01:34:19;;;;;;;5.88;3.92;;;;;;;-0.44;66.34;94813.22;5069475;28;20593;-76
2021/12/13 01:37:01;;;;;;;6.10;3.90;;;;;;;-0.40;67.93;94799.41;5072337;28;20107;-76
2021/12/13 01:39:28;;;;;;;6.43;4.00;;;;;;;-0.39;67.08;94811.31;5073587;28;20048;-76
2021/12/13 01:41:59;;;;;;;5.95;3.88;;;;;;;-0.43;67.02;94804.66;5074867;28;20028;-76
2021/12/13 01:44:28;;;;;;;5.70;3.75;;;;;;;-0.40;66.37;94790.94;5073430;28;20055;-76
2021/12/13 01:47:03;;;;;;;6.65;4.15;;;;;;;-0.33;66.21;94798.28;5073231;28;20041;-76
2021/12/13 01:49:31;;;;;;;6.03;3.65;;;;;;;-0.25;66.49;94803.91;5073068;28;20024;-76
2021/12/13 01:51:57;;;;;;;5.50;3.72;;;;;;;-0.27;66.47;94803.16;5073463;28;20036;-76
2021/12/13 01:54:23;;;;;;;6.70;4.05;;;;;;;-0.30;65.04;94807.56;5073671;28;20085;-76
2021/12/13 01:56:59;;;;;;;6.45;4.00;;;;;;;-0.31;65.55;94793.09;5073362;28;20044;-76
2021/12/13 02:02:25;;;;;;;4.78;3.38;;;;;;;-0.35;66.24;94801.78;5073140;28;20055;-76
2021/12/13 02:05:13;;;;;;;6.63;3.83;;;;;;;-0.37;66.47;94795.91;5073048;28;20027;-76
2021/12/13 02:07:52;;;;;;;5.35;3.50;;;;;;;-0.35;67.02;94786.47;5058830;28;20440;-76
2021/12/13 02:10:27;;;;;;;6.63;3.80;;;;;;;-0.46;67.56;94804.78;5057737;28;20604;-76
2021/12/13 02:12:57;;;;;;;5.55;3.80;;;;;;;-0.45;68.06;94798.78;5074699;28;20043;-76
2021/12/13 02:18:10;;;;;;;6.63;4.22;;;;;;;-0.55;68.61;94789.84;5073389;28;20044;-76
2021/12/13 02:20:38;;;;;;;5.78;4.05;;;;;;;-0.58;68.83;94788.25;5072727;28;20590;-76
2021/12/13 02:23:04;;;;;;;6.00;4.03;;;;;;;-0.59;69.14;94786.56;5074255;28;20044;-76
2021/12/13 02:25:41;;;;;;;6.25;3.90;;;;;;;-0.50;69.08;94788.75;5055839;28;20031;-77
2021/12/13 02:28:11;;;;;;;7.15;4.57;;;;;;;-0.52;69.42;94788.00;5073001;28;20047;-76
2021/12/13 02:30:47;;;;;;;6.78;4.35;;;;;;;-0.54;69.21;94794.88;5072576;28;20043;-76
2021/12/13 02:33:15;;;;;;;8.00;4.38;;;;;;;-0.59;69.38;94789.09;5072917;28;20071;-76
2021/12/13 02:35:44;;;;;;;5.00;3.38;;;;;;;-0.65;68.52;94791.09;5072367;28;20040;-76
2021/12/13 02:38:10;;;;;;;9.10;5.13;;;;;;;-0.66;68.63;94800.47;5056263;28;20033;-76
2021/12/13 02:40:36;;;;;;;6.70;4.15;;;;;;;-0.59;68.96;94794.22;5055740;28;20039;-76
2021/12/13 02:43:02;;;;;;;5.35;3.40;;;;;;;-0.56;69.04;94799.19;5072525;28;20052;-76
2021/12/13 02:45:32;;;;;;;6.85;3.95;;;;;;;-0.51;68.44;94799.03;5072046;28;20029;-77
2021/12/13 02:48:06;;;;;;;4.88;3.30;;;;;;;-0.54;69.09;94802.53;5072970;28;20036;-76
2021/12/13 02:51:04;;;;;;;5.35;3.78;;;;;;;-0.48;69.66;94804.00;5072122;28;20068;-76
2021/12/13 02:53:39;;;;;;;4.47;3.25;;;;;;;-0.61;69.35;94803.66;5056579;28;20197;-76
2021/12/13 02:56:04;;;;;;;4.63;3.40;;;;;;;-0.56;68.81;94804.28;5073385;28;20059;-76
2021/12/13 02:58:30;;;;;;;5.60;3.53;;;;;;;-0.61;68.98;94815.56;5055603;28;20028;-76
2021/12/13 03:01:24;;;;;;;6.45;3.90;;;;;;;-0.64;69.27;94803.78;5073203;28;20024;-76
2021/12/13 03:03:52;;;;;;;5.97;3.80;;;;;;;-0.64;69.51;94806.34;5075014;28;20051;-76
2021/12/13 03:06:21;;;;;;;5.88;4.03;;;;;;;-0.63;69.43;94802.91;5072939;28;20036;-76
2021/12/13 03:09:00;;;;;;;7.28;4.30;;;;;;;-0.74;70.35;94797.38;5088661;28;20119;-76
2021/12/13 03:11:31;;;;;;;8.27;4.20;;;;;;;-0.60;69.73;94797.66;5071780;28;20045;-75
2021/12/13 03:14:17;;;;;;;5.68;3.90;;;;;;;-0.62;70.25;94802.00;5072211;28;20090;-76
2021/12/13 03:17:03;;;;;;;7.47;4.72;;;;;;;-0.60;70.17;94802.78;5073025;28;20033;-77
2021/12/13 03:19:38;;;;;;;6.20;3.90;;;;;;;-0.63;70.22;94805.44;5071491;28;20036;-76
2021/12/13 03:22:41;;;;;;;6.45;4.35;;;;;;;-0.59;69.79;94798.50;5073040;28;20474;-76
2021/12/13 03:25:22;;;;;;;6.10;4.28;;;;;;;-0.62;71.15;94801.16;5071356;28;20032;-76
2021/12/13 03:28:22;;;;;;;7.75;4.55;;;;;;;-0.60;71.62;94800.22;5051044;28;20028;-77
2021/12/13 03:31:10;;;;;;;7.55;4.43;;;;;;;-0.62;71.85;94804.53;5071441;28;20115;-76
2021/12/13 03:33:52;;;;;;;8.02;4.70;;;;;;;-0.81;72.11;94799.31;5054602;28;20101;-76
2021/12/13 03:36:22;;;;;;;10.05;6.07;;;;;;;-0.82;72.93;94807.06;5086119;28;20035;-76
2021/12/13 03:38:49;;;;;;;10.85;5.38;;;;;;;-0.80;72.06;94797.63;5089562;28;20043;-76
2021/12/13 03:41:17;;;;;;;8.43;5.00;;;;;;;-0.75;71.49;94804.22;5091315;28;20448;-76
2021/12/13 03:43:46;;;;;;;7.32;5.05;;;;;;;-0.94;72.42;94793.06;5091570;28;20446;-76
2021/12/13 03:46:12;;;;;;;6.63;4.60;;;;;;;-0.93;72.57;94790.44;5090101;28;20025;-76
2021/12/13 03:48:38;;;;;;;7.90;4.47;;;;;;;-0.88;72.43;94792.00;5074170;28;20117;-76
2021/12/13 03:51:07;;;;;;;7.88;4.90;;;;;;;-0.91;72.28;94792.94;5074338;28;20058;-76
2021/12/13 03:53:33;;;;;;;8.30;5.22;;;;;;;-1.01;72.43;94805.19;5074482;28;20530;-76
2021/12/13 03:56:02;;;;;;;8.90;5.20;;;;;;;-0.94;72.16;94798.16;5082987;28;20074;-76
2021/12/13 03:58:30;;;;;;;8.50;5.75;;;;;;;-0.98;72.78;94807.63;5054687;28;20194;-76
2021/12/13 04:01:08;;;;;;;8.90;5.53;;;;;;;-1.02;73.19;94801.00;5054500;28;20042;-76
2021/12/13 04:03:34;;;;;;;10.35;6.05;;;;;;;-0.99;73.40;94811.06;5055727;28;20071;-76
2021/12/13 04:05:59;;;;;;;9.85;5.53;;;;;;;-1.00;72.61;94798.41;5068470;28;20028;-76
2021/12/13 04:08:25;;;;;;;10.20;6.18;;;;;;;-1.05;73.10;94790.09;5070804;28;20043;-76
2021/12/13 04:10:57;;;;;;;13.05;7.65;;;;;;;-1.09;74.15;94799.53;5054892;28;20093;-77
2021/12/13 04:13:25;;;;;;;10.70;6.68;;;;;;;-1.15;74.29;94795.50;5063888;28;20023;-79
2021/12/13 04:16:06;;;;;;;9.07;5.97;;;;;;;-1.04;74.10;94818.06;5065399;28;20395;-76
2021/12/13 04:19:06;;;;;;;11.52;7.55;;;;;;;-1.06;73.60;94808.81;5082717;28;20107;-77
2021/12/13 04:21:44;;;;;;;13.63;8.00;;;;;;;-1.00;72.75;94809.44;5070827;28;20051;-76
2021/12/13 04:24:14;;;;;;;11.98;6.82;;;;;;;-1.13;73.17;94788.66;5084210;28;20410;-76
2021/12/13 04:26:43;;;;;;;12.30;9.13;;;;;;;-1.01;71.78;94805.19;5086948;28;20501;-76
2021/12/13 04:29:16;;;;;;;26.73;14.70;;;;;;;-0.99;72.53;94818.72;5072657;28;20039;-77
2021/12/13 04:31:41;;;;;;;11.27;6.95;;;;;;;-1.01;72.59;94817.94;5067755;28;20036;-77
2021/12/13 04:34:07;;;;;;;10.50;5.78;;;;;;;-0.97;72.54;94823.78;5071478;28;20105;-77
2021/12/13 04:36:33;;;;;;;10.63;6.80;;;;;;;-0.88;73.26;94822.59;5065741;28;20032;-76
2021/12/13 04:39:02;;;;;;;16.45;9.90;;;;;;;-0.92;72.51;94826.97;5081318;28;20043;-77
2021/12/13 04:41:34;;;;;;;14.35;8.38;;;;;;;-0.89;73.47;94816.66;5090282;28;20032;-77
2021/12/13 04:44:15;;;;;;;14.60;9.70;;;;;;;-0.95;73.62;94830.50;5089704;28;20060;-76
2021/12/13 04:46:41;;;;;;;12.70;8.52;;;;;;;-0.91;73.18;94833.75;5083854;28;20063;-77
2021/12/13 04:49:12;;;;;;;15.68;9.77;;;;;;;-0.99;74.08;94844.22;5070746;28;20068;-76
2021/12/13 04:51:44;;;;;;;12.87;8.67;;;;;;;-0.95;74.26;94840.69;5069797;28;20032;-77
2021/12/13 04:54:11;;;;;;;13.18;8.27;;;;;;;-1.07;74.44;94830.94;5071636;28;20282;-76
2021/12/13 04:56:36;;;;;;;12.95;9.38;;;;;;;-0.98;74.50;94843.31;5088127;28;20048;-76
2021/12/13 04:59:02;;;;;;;13.05;7.95;;;;;;;-0.86;74.02;94836.09;5071824;28;20488;-76
2021/12/13 05:01:28;;;;;;;12.70;7.28;;;;;;;-0.87;74.43;94839.56;5064680;28;20043;-76
2021/12/13 05:03:58;;;;;;;13.40;8.80;;;;;;;-0.91;74.51;94838.84;5091249;28;20032;-77
2021/12/13 05:06:30;;;;;;;14.63;9.57;;;;;;;-0.97;74.72;94845.00;5082451;28;20474;-77
2021/12/13 05:08:58;;;;;;;15.13;11.07;;;;;;;-0.90;74.76;94846.41;5087725;28;20460;-76
2021/12/13 05:11:34;;;;;;;16.92;11.55;;;;;;;-0.95;74.70;94838.13;5070932;28;20406;-76
2021/12/13 05:13:59;;;;;;;22.42;10.85;;;;;;;-1.04;74.02;94817.22;5067598;28;20546;-76
2021/12/13 05:16:44;;;;;;;26.83;12.80;;;;;;;-0.82;74.08;94848.69;5055008;28;20032;-76
2021/12/13 05:19:12;;;;;;;14.77;9.20;;;;;;;-0.87;74.83;94842.09;5064153;28;20040;-76
2021/12/13 05:21:39;;;;;;;23.25;13.32;;;;;;;-0.91;75.09;94844.78;5042155;28;20028;-76
2021/12/13 05:24:09;;;;;;;14.15;9.30;;;;;;;-0.85;74.24;94845.44;5087860;28;20032;-76
2021/12/13 05:26:58;;;;;;;14.57;10.02;;;;;;;-0.80;73.88;94853.75;5088883;28;20071;-76
2021/12/13 05:29:44;;;;;;;14.10;8.15;;;;;;;-0.73;73.50;94863.63;5082377;28;20031;-76
2021/12/13 05:32:24;;;;;;;12.50;8.73;;;;;;;-0.84;73.93;94859.84;5090176;28;20073;-76
2021/12/13 05:34:52;;;;;;;13.80;8.82;;;;;;;-0.92;74.55;94848.22;5072828;28;20445;-76
2021/12/13 05:37:18;;;;;;;11.73;7.70;;;;;;;-0.97;74.00;94854.38;5065052;28;20049;-76
2021/12/13 05:40:02;;;;;;;11.95;7.82;;;;;;;-0.95;73.75;94868.75;5083141;28;20139;-77
2021/12/13 05:42:41;;;;;;;10.45;7.38;;;;;;;-1.10;75.00;94869.28;5088644;28;20028;-76
2021/12/13 05:45:08;;;;;;;16.33;11.95;;;;;;;-1.02;74.09;94872.41;5088283;28;20036;-76
2021/12/13 05:47:34;;;;;;;17.15;10.02;;;;;;;-1.00;73.88;94874.91;5083775;28;20037;-76
2021/12/13 05:50:00;;;;;;;12.48;7.05;;;;;;;-1.02;74.19;94879.22;5088685;28;20413;-76
2021/12/13 05:52:32;;;;;;;10.90;6.85;;;;;;;-1.09;74.65;94860.75;5053515;28;20081;-76
2021/12/13 05:54:58;;;;;;;11.40;7.70;;;;;;;-1.04;74.56;94876.72;5069881;28;20417;-76
2021/12/13 05:57:30;;;;;;;12.93;6.57;;;;;;;-1.06;75.23;94886.13;5071700;28;20051;-76
2021/12/13 05:59:58;;;;;;;;;;;;;;;-1.03;74.84;94890.28;5090129;28;20115;-76
2021/12/13 06:02:43;;;;;;;13.07;7.82;;;;;;;-1.12;75.32;94891.47;5081586;28;19936;-76
2021/12/13 06:05:14;;;;;;;11.13;7.47;;;;;;;-1.08;75.69;94892.19;5069023;28;20020;-76
2021/12/13 06:07:40;;;;;;;13.32;8.95;;;;;;;-1.17;75.04;94878.91;5084534;28;20059;-76
2021/12/13 06:10:05;;;;;;;14.20;8.82;;;;;;;-1.00;74.64;94900.41;5060468;28;20592;-76
2021/12/13 06:12:35;;;;;;;13.32;8.25;;;;;;;-1.00;74.83;94901.22;5075917;28;20131;-76
2021/12/13 06:15:16;;;;;;;12.20;7.97;;;;;;;-0.94;75.08;94910.38;5083769;28;20089;-76
2021/12/13 06:18:03;;;;;;;22.93;11.37;;;;;;;-0.97;75.32;94908.75;5073727;28;20032;-76
2021/12/13 06:20:34;;;;;;;12.85;8.13;;;;;;;-1.11;75.48;94882.94;5084326;28;20036;-76
2021/12/13 06:23:30;;;;;;;12.00;7.63;;;;;;;-1.00;75.25;94906.34;5068252;28;20501;-76
2021/12/13 06:25:55;;;;;;;38.95;20.45;;;;;;;-0.96;75.71;94902.78;5072221;28;20101;-76
2021/12/13 06:28:27;;;;;;;50.50;25.65;;;;;;;-1.04;76.42;94907.31;5089681;28;20127;-76
2021/12/13 06:31:13;;;;;;;17.25;9.93;;;;;;;-1.04;76.30;94904.75;5075082;28;20034;-76
2021/12/13 06:33:44;;;;;;;27.30;15.43;;;;;;;-1.01;76.64;94917.41;5074329;28;20040;-76
2021/12/13 06:36:11;;;;;;;;;;;;;;;-0.96;76.08;94907.88;5083311;28;20056;-76
2021/12/13 06:38:50;;;;;;;16.02;10.07;;;;;;;-1.00;76.60;94913.16;5085177;28;20385;-76
2021/12/13 06:41:26;;;;;;;15.57;9.60;;;;;;;-0.95;76.83;94922.31;5054270;28;20045;-76
2021/12/13 06:43:53;;;;;;;13.10;6.75;;;;;;;-0.88;75.58;94920.34;5078614;28;20111;-76
2021/12/13 06:46:33;;;;;;;11.60;8.30;;;;;;;-0.98;76.42;94922.38;5090794;28;20069;-76
2021/12/13 06:49:07;;;;;;;15.13;9.68;;;;;;;-0.93;76.10;94925.59;5081499;28;20040;-76
2021/12/13 06:51:50;;;;;;;14.52;9.20;;;;;;;-0.98;75.82;94930.03;5056998;28;21204;-76
2021/12/13 06:54:24;;;;;;;13.82;9.68;;;;;;;-1.10;76.94;94935.59;5074380;28;20111;-76
2021/12/13 06:57:02;;;;;;;12.80;8.55;;;;;;;-1.03;75.98;94933.63;5093225;28;20044;-77
2021/12/13 06:59:29;;;;;;;16.00;10.30;;;;;;;-1.16;76.87;94930.72;5078978;28;20028;-76
2021/12/13 07:02:06;;;;;;;18.20;10.05;;;;;;;-1.15;76.91;94932.38;5059282;28;20055;-76
2021/12/13 07:04:51;;;;;;;23.17;10.82;;;;;;;-1.08;77.42;94948.28;5083860;28;20035;-77
2021/12/13 07:07:17;;;;;;;31.00;15.50;;;;;;;-1.05;76.64;94951.56;5090031;28;20050;-76
2021/12/13 07:10:01;;;;;;;23.77;13.70;;;;;;;-1.12;77.32;94950.94;5079645;28;20477;-77
2021/12/13 07:12:27;;;;;;;14.70;9.68;;;;;;;-1.06;77.22;94944.78;5084128;28;20410;-76
2021/12/13 07:14:53;;;;;;;18.80;11.05;;;;;;;-1.02;76.71;94948.06;5073216;28;20051;-77
2021/12/13 07:17:30;;;;;;;20.63;11.77;;;;;;;-1.04;77.26;94949.84;5079466;28;20039;-77
2021/12/13 07:19:56;;;;;;;19.80;11.45;;;;;;;-1.00;77.28;94952.25;5055205;28;20064;-75
2021/12/13 07:22:26;;;;;;;21.50;12.18;;;;;;;-0.97;77.75;94954.69;5091271;28;20444;-76
2021/12/13 07:24:54;;;;;;;17.98;10.40;;;;;;;-1.01;77.46;94950.56;5083245;28;20082;-77
2021/12/13 07:27:22;;;;;;;15.82;10.13;;;;;;;-0.95;77.48;94950.34;5068255;28;20383;-76
2021/12/13 07:29:52;;;;;;;26.15;13.88;;;;;;;-0.99;77.27;94946.25;5049641;28;20506;-82
2021/12/13 07:32:31;;;;;;;22.00;12.93;;;;;;;-1.06;77.04;94929.47;5085388;28;20107;-78
2021/12/13 07:35:07;;;;;;;25.85;13.90;;;;;;;-1.00;77.11;94936.94;5082410;28;20129;-79
2021/12/13 07:37:48;;;;;;;22.55;13.57;;;;;;;-1.01;76.99;94940.34;5090475;28;20047;-79
2021/12/13 07:40:25;;;;;;;25.88;12.32;;;;;;;-0.82;76.57;94970.31;5082387;28;20057;-75
2021/12/13 07:43:21;;;;;;;25.15;11.30;;;;;;;-0.88;76.54;94966.25;5087997;28;20032;-75
2021/12/13 07:46:05;;;;;;;26.88;13.90;;;;;;;-0.86;76.63;94964.50;5060972;28;20070;-76
2021/12/13 07:48:41;;;;;;;20.15;12.68;;;;;;;-0.90;76.22;94955.28;5089263;28;20043;-78
2021/12/13 07:51:15;;;;;;;18.95;11.20;;;;;;;-0.72;76.83;94972.47;5085351;28;20020;-76
2021/12/13 07:53:43;;;;;;;16.80;9.90;;;;;;;-0.78;75.89;94982.06;5091511;28;20663;-76
2021/12/13 07:56:11;;;;;;;37.13;18.50;;;;;;;-0.76;76.21;94981.13;5083784;28;20506;-77
2021/12/13 07:58:40;;;;;;;35.92;17.95;;;;;;;-0.78;75.86;94976.94;5091581;28;20055;-77
2021/12/13 08:01:10;;;;;;;39.80;19.83;;;;;;;-0.83;75.63;94964.38;5084918;28;20452;-77
2021/12/13 08:03:44;;;;;;;27.33;16.02;;;;;;;-0.69;75.09;94977.47;5080208;28;20044;-76
2021/12/13 08:06:09;;;;;;;26.42;16.10;;;;;;;-0.63;75.37;94981.50;5070912;28;20025;-75
2021/12/13 08:08:35;;;;;;;23.92;13.43;;;;;;;-0.59;75.66;94972.84;5090006;28;20046;-76
2021/12/13 08:11:01;;;;;;;16.33;10.52;;;;;;;-0.55;74.77;94979.53;5072737;28;20252;-77
2021/12/13 08:13:29;;;;;;;16.35;11.05;;;;;;;-0.60;74.62;94978.84;5090167;28;20032;-77
2021/12/13 08:16:06;;;;;;;13.98;9.70;;;;;;;-0.55;74.51;94984.63;5070632;28;20444;-76
2021/12/13 08:18:37;;;;;;;17.92;11.25;;;;;;;-0.54;75.19;94972.69;5091204;28;20509;-76
2021/12/13 08:21:05;;;;;;;18.42;10.40;;;;;;;-0.46;74.34;94988.56;5070714;28;20387;-76
2021/12/13 08:23:41;;;;;;;20.98;11.85;;;;;;;-0.48;74.34;94986.03;5087711;28;20480;-76
2021/12/13 08:26:08;;;;;;;18.15;10.80;;;;;;;-0.51;73.92;94991.25;5083480;28;20028;-76
2021/12/13 08:28:45;;;;;;;18.50;10.57;;;;;;;-0.48;73.90;94982.66;5089901;28;20028;-77
2021/12/13 08:31:19;;;;;;;25.48;11.85;;;;;;;-0.44;73.88;94988.50;5085768;28;20073;-76
2021/12/13 08:33:48;;;;;;;15.25;9.32;;;;;;;-0.41;73.67;94990.94;5073826;28;20086;-77
2021/12/13 08:36:15;;;;;;;16.17;10.38;;;;;;;-0.43;73.07;94987.59;5072073;28;20020;-75
2021/12/13 08:38:47;;;;;;;20.58;12.65;;;;;;;-0.42;73.64;94989.25;5072330;28;20028;-76
2021/12/13 08:41:20;;;;;;;18.38;10.88;;;;;;;-0.43;73.84;94988.44;5089405;28;20685;-76
2021/12/13 08:43:57;;;;;;;17.58;9.55;;;;;;;-0.40;73.62;94993.41;5080351;28;20028;-76
2021/12/13 08:46:40;;;;;;;18.27;11.95;;;;;;;-0.42;73.61;94973.94;5070012;28;20020;-76
2021/12/13 08:49:26;;;;;;;15.57;9.95;;;;;;;-0.32;73.27;94988.03;5089175;28;20569;-76
2021/12/13 08:52:13;;;;;;;19.67;10.13;;;;;;;-0.43;73.69;94987.59;5079819;28;20024;-76
2021/12/13 08:54:47;;;;;;;18.20;11.40;;;;;;;-0.40;74.50;94982.38;5080556;28;20036;-76
2021/12/13 08:57:32;;;;;;;21.17;12.82;;;;;;;-0.52;74.19;94984.50;5074995;28;20131;-76
2021/12/13 08:59:58;;;;;;;23.88;12.55;;;;;;;-0.46;73.84;94988.56;5079247;28;20536;-76
2021/12/13 09:02:36;;;;;;;22.77;12.88;;;;;;;-0.40;74.31;94984.94;5089124;28;20051;-76
2021/12/13 09:05:15;;;;;;;20.70;12.13;;;;;;;-0.35;73.34;94991.53;5077883;28;20116;-76
2021/12/13 09:07:55;;;;;;;22.75;13.63;;;;;;;-0.36;73.75;94989.03;5064937;28;20092;-76
2021/12/13 09:10:21;;;;;;;21.60;12.48;;;;;;;-0.32;73.73;94985.50;5070077;28;20465;-76
2021/12/13 09:12:55;;;;;;;19.80;11.18;;;;;;;-0.26;72.60;94987.81;5061607;28;20106;-76
2021/12/13 09:15:26;;;;;;;19.65;10.80;;;;;;;-0.21;73.14;94983.34;5065904;28;20020;-76
2021/12/13 09:17:52;;;;;;;23.50;12.48;;;;;;;-0.54;73.46;94959.94;5088673;28;20033;-76
2021/12/13 09:20:24;;;;;;;19.88;10.60;;;;;;;-0.30;72.96;94989.66;5087541;28;20093;-76
2021/12/13 09:22:51;;;;;;;37.70;19.48;;;;;;;-0.34;74.03;94988.09;5085397;28;20101;-75
2021/12/13 09:25:37;;;;;;;22.00;11.32;;;;;;;-0.33;73.93;94974.44;5077430;28;20059;-76
2021/12/13 09:28:08;;;;;;;17.35;11.02;;;;;;;-0.31;73.65;94971.81;5082369;28;20101;-76
2021/12/13 09:31:00;;;;;;;20.55;12.40;;;;;;;-0.30;73.44;94968.41;5088381;28;20021;-76
2021/12/13 09:33:33;;;;;;;24.48;13.68;;;;;;;-0.25;72.93;94971.63;5086933;28;20120;-76
2021/12/13 09:36:19;;;;;;;35.08;19.88;;;;;;;-0.30;73.56;94968.41;5086462;28;20016;-76
2021/12/13 09:39:06;;;;;;;26.10;14.35;;;;;;;-0.29;73.13;94970.88;5053518;28;20399;-76
2021/12/13 09:41:47;;;;;;;23.35;14.25;;;;;;;-0.31;73.72;94966.72;5086078;28;20039;-76
2021/12/13 09:44:13;;;;;;;24.40;12.77;;;;;;;-0.30;73.79;94968.41;5068644;28;20032;-76
2021/12/13 09:46:42;;;;;;;28.48;13.48;;;;;;;-0.23;73.12;94968.09;5073316;28;20471;-76
2021/12/13 09:49:12;;;;;;;22.42;12.00;;;;;;;-0.23;72.90;94964.69;5081363;28;20730;-76
2021/12/13 09:52:12;;;;;;;21.50;11.82;;;;;;;-0.26;72.94;94969.94;5068309;28;20526;-76
2021/12/13 09:54:48;;;;;;;20.88;10.80;;;;;;;-0.21;73.09;94973.13;5082662;28;20151;-76
2021/12/13 09:57:17;;;;;;;22.70;11.82;;;;;;;-0.34;73.37;94969.38;5087422;28;20040;-76
2021/12/13 09:59:44;;;;;;;17.55;10.73;;;;;;;-0.33;74.26;94969.34;5085864;28;20051;-76
2021/12/13 10:02:19;;;;;;;23.35;13.52;;;;;;;-0.30;74.22;94960.72;5088848;28;20039;-76
2021/12/13 10:04:45;;;;;;;36.25;17.95;;;;;;;-0.22;73.99;94966.38;5086895;28;20509;-76
2021/12/13 10:07:13;;;;;;;42.10;19.38;;;;;;;-0.24;73.80;94965.59;5083058;28;20047;-76
2021/12/13 10:09:45;;;;;;;30.17;16.73;;;;;;;-0.17;73.54;94963.63;5077842;28;20098;-76
2021/12/13 10:12:22;;;;;;;46.13;20.20;;;;;;;-0.15;74.39;94967.78;5076641;28;20502;-76
2021/12/13 10:14:53;;;;;;;32.45;18.42;;;;;;;-0.12;74.15;94962.56;5070644;28;20058;-76
2021/12/13 10:17:21;;;;;;;35.35;20.25;;;;;;;-0.09;74.23;94947.13;5059770;28;20032;-76
2021/12/13 10:19:49;;;;;;;37.70;21.38;;;;;;;-0.07;74.23;94954.72;5082451;28;20490;-76
2021/12/13 10:22:20;;;;;;;41.97;23.10;;;;;;;0.01;74.37;94954.44;5076088;28;20105;-76
2021/12/13 10:24:54;;;;;;;30.15;18.80;;;;;;;0.03;74.07;94952.63;5079001;28;20126;-76
2021/12/13 10:27:19;;;;;;;60.53;33.15;;;;;;;-0.13;74.70;94958.34;5073303;28;20505;-76
2021/12/13 10:29:48;;;;;;;65.18;34.60;;;;;;;-0.10;73.85;94939.53;5061270;28;20028;-75
2021/12/13 10:32:17;;;;;;;75.53;38.33;;;;;;;-0.02;74.22;94937.50;5082650;28;20478;-77
2021/12/13 10:34:47;;;;;;;44.55;23.52;;;;;;;0.07;73.50;94954.19;5070587;28;20029;-79
2021/12/13 10:37:16;;;;;;;72.93;33.47;;;;;;;0.08;74.06;94948.19;5071314;28;20035;-75
2021/12/13 10:39:45;;;;;;;42.25;21.25;;;;;;;0.13;74.15;94946.28;5087678;28;20036;-78
2021/12/13 10:42:14;;;;;;;26.27;15.63;;;;;;;0.12;73.70;94939.53;5075964;28;20035;-76
2021/12/13 10:44:44;;;;;;;32.63;17.15;;;;;;;0.02;74.96;94933.94;5090028;28;20024;-78
2021/12/13 10:47:14;;;;;;;31.25;17.95;;;;;;;0.16;74.31;94948.72;5072437;28;20037;-78
2021/12/13 10:49:41;;;;;;;24.15;14.30;;;;;;;0.15;73.72;94944.50;5087805;28;20119;-74
2021/12/13 10:52:22;;;;;;;29.73;18.05;;;;;;;0.02;73.97;94938.22;5074098;28;20036;-74
2021/12/13 10:54:51;;;;;;;28.25;15.63;;;;;;;0.15;73.87;94939.38;5076043;28;20020;-75
2021/12/13 10:57:26;;;;;;;29.58;16.20;;;;;;;0.16;72.92;94935.94;5074441;28;20439;-75
2021/12/13 10:59:51;;;;;;;36.15;19.75;;;;;;;0.11;73.87;94932.72;5087578;28;20064;-75
2021/12/13 11:02:26;;;;;;;30.90;17.92;;;;;;;0.25;73.88;94948.34;5093042;28;20044;-74
2021/12/13 11:05:00;;;;;;;42.38;23.52;;;;;;;0.12;73.61;94926.75;5085062;28;20413;-75
2021/12/13 11:07:26;;;;;;;70.05;36.53;;;;;;;0.16;73.25;94930.81;5090794;28;20043;-75
2021/12/13 11:09:52;;;;;;;43.28;22.92;;;;;;;0.21;73.61;94934.84;5087565;28;20486;-76
2021/12/13 11:12:21;;;;;;;35.50;16.92;;;;;;;0.11;74.07;94907.19;5074943;28;20544;-76
2021/12/13 11:14:48;;;;;;;52.55;20.02;;;;;;;0.28;73.85;94940.56;5054394;28;20035;-76
2021/12/13 11:17:17;;;;;;;36.78;18.65;;;;;;;0.32;73.15;94931.88;5070666;28;20064;-79
2021/12/13 11:19:46;;;;;;;31.92;19.15;;;;;;;0.31;73.25;94935.31;5068739;28;20028;-75
2021/12/13 11:22:15;;;;;;;42.80;16.70;;;;;;;0.36;73.25;94937.69;5078592;28;20035;-76
2021/12/13 11:24:43;;;;;;;82.85;26.98;;;;;;;0.37;73.60;94932.50;5070567;28;20043;-76
2021/12/13 11:27:17;;;;;;;46.55;19.52;;;;;;;0.31;72.29;94935.31;5068971;28;20028;-76
2021/12/13 11:29:44;;;;;;;43.35;17.48;;;;;;;0.35;73.00;94936.03;5089958;28;20097;-77
2021/12/13 11:32:31;;;;;;;72.07;28.67;;;;;;;0.33;71.92;94933.53;5090203;28;20118;-75
2021/12/13 11:35:11;;;;;;;112.47;42.13;;;;;;;0.36;72.25;94933.41;5086162;28;21396;-75
2021/12/13 11:37:57;;;;;;;83.32;30.48;;;;;;;0.36;73.07;94933.41;5082983;28;20040;-75
2021/12/13 11:40:41;;;;;;;49.05;21.23;;;;;;;0.41;71.87;94933.22;5086303;28;20023;-75
2021/12/13 11:43:33;;;;;;;33.65;18.00;;;;;;;0.40;72.64;94924.72;5080087;28;20047;-75
2021/12/13 11:46:17;;;;;;;;;;;;;;;0.44;72.22;94931.34;5083979;28;20493;-75
2021/12/13 11:49:10;;;;;;;55.28;24.73;;;;;;;0.41;73.20;94939.16;5082484;28;19924;-75
2021/12/13 11:52:30;;;;;;;56.15;28.48;;;;;;;0.47;73.07;94935.50;5084555;28;20040;-73
2021/12/13 11:55:07;;;;;;;122.72;47.75;;;;;;;0.46;72.81;94935.59;5060443;28;20663;-76
2021/12/13 11:57:48;;;;;;;101.68;41.35;;;;;;;0.40;73.06;94919.59;5091598;28;20052;-75
2021/12/13 12:00:47;;;;;;;77.53;34.25;;;;;;;0.55;72.54;94943.69;5085445;28;20375;-74
2021/12/13 12:03:31;;;;;;;40.17;21.48;;;;;;;0.49;72.25;94933.72;5071148;28;20037;-74
2021/12/13 12:06:03;;;;;;;50.45;33.58;;;;;;;0.38;73.03;94925.66;5085269;28;20038;-75